Time;durP1;ratioP1;P1;durP2;ratioP2;P2;SDS_P1;SDS_P2;PMS_P1;PMS_P2;Temp;Humidity;BMP_temperature;BMP_pressure;BME280_temperature;BME280_humidity;BME280_pressure;Samples;Min_cycle;Max_cycle;Signal;HPM_P1;HPM_P2
2022/08/23 00:01:23;;;;;;;0.30;0.30;;;25.10;59.00;;;;;;5026206;28;20392;-60
2022/08/23 00:03:52;;;;;;;0.20;0.20;;;25.00;58.90;;;;;;5033404;28;20069;-60
2022/08/23 00:06:21;;;;;;;0.20;0.10;;;25.00;58.90;;;;;;5044895;28;20048;-60
2022/08/23 00:08:51;;;;;;;0.10;0.10;;;25.00;58.90;;;;;;5046368;28;20094;-61
2022/08/23 00:11:36;;;;;;;0.30;0.20;;;25.00;58.90;;;;;;5045918;28;20114;-60
2022/08/23 00:14:14;;;;;;;0.13;0.10;;;25.00;58.90;;;;;;5045920;28;20053;-60
2022/08/23 00:16:42;;;;;;;0.38;0.32;;;25.00;59.00;;;;;;5043612;28;20041;-60
2022/08/23 00:19:12;;;;;;;0.40;0.10;;;25.00;58.90;;;;;;5041295;28;20041;-61
2022/08/23 00:21:40;;;;;;;0.10;0.10;;;25.00;58.90;;;;;;5044973;28;20045;-60
2022/08/23 00:24:08;;;;;;;0.20;0.20;;;25.00;58.90;;;;;;5044768;28;20439;-60
2022/08/23 00:27:13;;;;;;;1.00;0.20;;;25.00;58.90;;;;;;5046146;28;20092;-60
2022/08/23 00:29:47;;;;;;;1.10;0.17;;;25.00;58.90;;;;;;5045813;28;20327;-60
2022/08/23 00:32:25;;;;;;;0.80;0.10;;;25.00;58.90;;;;;;5046107;28;20107;-60
2022/08/23 00:34:53;;;;;;;1.10;0.10;;;25.00;58.90;;;;;;5047901;28;20045;-60
2022/08/23 00:37:21;;;;;;;0.10;0.10;;;25.00;58.90;;;;;;5048715;28;20464;-60
2022/08/23 00:39:48;;;;;;;0.10;0.10;;;25.00;59.00;;;;;;5048266;28;20142;-60
2022/08/23 00:48:31;;;;;;;0.20;0.20;;;25.00;58.90;;;;;;5045865;28;20258;-60
2022/08/23 00:51:13;;;;;;;0.20;0.10;;;25.10;59.00;;;;;;5047469;28;20049;-60
2022/08/23 00:53:50;;;;;;;0.00;0.00;;;25.00;58.90;;;;;;5047781;28;20415;-60
2022/08/23 00:56:21;;;;;;;0.32;0.30;;;25.10;58.90;;;;;;5048474;28;20300;-60
2022/08/23 00:58:49;;;;;;;0.20;0.20;;;25.10;58.80;;;;;;5048193;28;20506;-60
2022/08/23 01:01:16;;;;;;;0.10;0.10;;;25.00;58.80;;;;;;5048450;28;20049;-60
2022/08/23 01:03:49;;;;;;;0.10;0.10;;;25.00;58.80;;;;;;5046419;28;20053;-60
2022/08/23 01:06:42;;;;;;;0.10;0.10;;;25.00;58.80;;;;;;5048376;28;20049;-62
2022/08/23 01:09:16;;;;;;;0.98;0.10;;;25.00;58.80;;;;;;5046472;28;20045;-60
2022/08/23 01:12:02;;;;;;;0.52;0.20;;;25.00;58.80;;;;;;5046596;28;20488;-63
2022/08/23 01:14:37;;;;;;;0.10;0.10;;;25.00;58.80;;;;;;5048250;28;20045;-60
2022/08/23 01:17:11;;;;;;;1.17;0.10;;;25.00;58.80;;;;;;5048002;28;20049;-60
2022/08/23 01:19:48;;;;;;;0.00;0.00;;;25.00;58.80;;;;;;5046244;28;20052;-60
2022/08/23 01:22:26;;;;;;;0.13;0.13;;;25.10;58.90;;;;;;5046340;28;20107;-60
2022/08/23 01:24:54;;;;;;;0.15;0.15;;;25.00;58.80;;;;;;5047576;28;20041;-60
2022/08/23 01:27:34;;;;;;;0.32;0.10;;;25.00;58.80;;;;;;5047153;28;20049;-60
2022/08/23 01:30:04;;;;;;;0.17;0.10;;;25.00;58.80;;;;;;5047891;28;20049;-60
2022/08/23 01:32:35;;;;;;;0.13;0.13;;;25.00;58.80;;;;;;5047415;28;20053;-60
2022/08/23 01:35:03;;;;;;;0.25;0.10;;;25.00;58.80;;;;;;5047212;28;20048;-60
2022/08/23 01:37:30;;;;;;;0.17;0.10;;;25.00;58.80;;;;;;5047378;28;20045;-60
2022/08/23 01:39:57;;;;;;;0.43;0.10;;;25.00;58.80;;;;;;5046397;28;20476;-60
2022/08/23 01:42:24;;;;;;;0.00;0.00;;;24.90;58.70;;;;;;5047179;28;20045;-60
2022/08/23 01:44:52;;;;;;;0.20;0.10;;;25.00;58.80;;;;;;5047384;28;20049;-61
2022/08/23 01:47:19;;;;;;;0.40;0.10;;;25.00;58.80;;;;;;5047298;28;20484;-60
2022/08/23 01:49:46;;;;;;;0.30;0.17;;;25.00;58.80;;;;;;5047342;28;20429;-60
2022/08/23 01:52:14;;;;;;;0.10;0.10;;;25.00;58.80;;;;;;5042504;28;20053;-60
2022/08/23 01:54:42;;;;;;;0.28;0.03;;;25.00;58.80;;;;;;5046132;28;20049;-60
2022/08/23 01:57:09;;;;;;;0.22;0.20;;;25.00;58.80;;;;;;5047027;28;20488;-60
2022/08/23 01:59:37;;;;;;;0.40;0.20;;;25.00;58.80;;;;;;5046821;28;20480;-60
2022/08/23 02:02:05;;;;;;;0.25;0.25;;;25.00;58.80;;;;;;5045560;28;20037;-60
2022/08/23 02:04:33;;;;;;;0.15;0.10;;;25.00;58.80;;;;;;5046810;28;20052;-60
2022/08/23 02:07:00;;;;;;;0.20;0.20;;;25.00;58.80;;;;;;5045521;28;20430;-60
2022/08/23 02:09:27;;;;;;;0.03;0.03;;;25.00;58.70;;;;;;5046027;28;20387;-60
2022/08/23 02:11:55;;;;;;;0.08;0.08;;;25.00;58.70;;;;;;5046714;28;20053;-60
2022/08/23 02:14:22;;;;;;;0.00;0.00;;;25.00;58.70;;;;;;5046971;28;20401;-60
2022/08/23 02:16:52;;;;;;;0.10;0.10;;;25.00;58.70;;;;;;5046720;28;20126;-60
2022/08/23 02:19:34;;;;;;;1.02;0.20;;;25.00;58.70;;;;;;5047201;28;20037;-60
2022/08/23 02:22:02;;;;;;;0.00;0.00;;;25.00;58.70;;;;;;5047503;28;20083;-60
2022/08/23 02:24:30;;;;;;;0.08;0.08;;;25.00;58.70;;;;;;5043337;28;20419;-60
2022/08/23 02:27:03;;;;;;;2.67;0.10;;;25.00;58.70;;;;;;5047865;28;20421;-61
2022/08/23 02:29:34;;;;;;;0.10;0.10;;;25.00;58.70;;;;;;5045945;28;20062;-60
2022/08/23 02:32:05;;;;;;;1.45;0.10;;;25.00;58.70;;;;;;5046310;28;20056;-60
2022/08/23 02:34:32;;;;;;;0.10;0.10;;;25.00;58.70;;;;;;5044907;28;20052;-60
2022/08/23 02:37:00;;;;;;;0.22;0.20;;;25.00;58.70;;;;;;5046370;28;20480;-61
2022/08/23 02:39:29;;;;;;;0.10;0.10;;;25.00;58.70;;;;;;5046404;28;20049;-61
2022/08/23 02:41:56;;;;;;;0.15;0.10;;;25.00;58.70;;;;;;5028814;28;20453;-60
2022/08/23 02:44:23;;;;;;;0.10;0.10;;;25.00;58.80;;;;;;5046278;28;20045;-60
2022/08/23 02:46:51;;;;;;;0.10;0.10;;;25.00;58.80;;;;;;5046890;28;20375;-60
2022/08/23 02:49:18;;;;;;;0.43;0.10;;;25.00;58.70;;;;;;5046162;28;20504;-60
2022/08/23 02:51:45;;;;;;;0.10;0.10;;;25.00;58.80;;;;;;5047029;28;20546;-60
2022/08/23 02:54:12;;;;;;;0.30;0.20;;;25.00;58.80;;;;;;5045225;28;20052;-60
2022/08/23 02:56:40;;;;;;;0.00;0.00;;;25.00;58.80;;;;;;5042572;28;20081;-60
2022/08/23 02:59:07;;;;;;;0.03;0.03;;;25.00;58.80;;;;;;5047141;28;20076;-60
2022/08/23 03:01:37;;;;;;;0.10;0.10;;;25.00;58.80;;;;;;5046037;28;20075;-60
2022/08/23 03:04:07;;;;;;;0.50;0.10;;;25.00;58.80;;;;;;5046295;28;20080;-60
2022/08/23 03:06:35;;;;;;;2.75;0.10;;;25.00;58.80;;;;;;5046777;28;20380;-60
2022/08/23 03:09:04;;;;;;;0.30;0.10;;;25.00;58.80;;;;;;5046887;28;20394;-60
2022/08/23 03:11:32;;;;;;;0.10;0.10;;;25.00;58.80;;;;;;5029246;28;20044;-60
2022/08/23 03:14:00;;;;;;;0.55;0.00;;;25.00;58.90;;;;;;5047143;28;20040;-60
2022/08/23 03:16:28;;;;;;;0.70;0.05;;;25.00;58.90;;;;;;5046709;28;20333;-60
2022/08/23 03:18:55;;;;;;;0.20;0.10;;;25.00;58.90;;;;;;5045860;28;20041;-60
2022/08/23 03:21:22;;;;;;;0.43;0.10;;;25.00;58.90;;;;;;5045491;28;20552;-60
2022/08/23 03:23:50;;;;;;;1.35;0.40;;;25.00;59.00;;;;;;5045704;28;20049;-60
2022/08/23 03:26:18;;;;;;;0.10;0.10;;;25.00;58.90;;;;;;5041696;28;20057;-61
2022/08/23 03:28:46;;;;;;;0.00;0.00;;;25.00;58.90;;;;;;5031925;28;20417;-60
2022/08/23 03:31:14;;;;;;;0.10;0.10;;;25.00;58.90;;;;;;5027328;28;20586;-60
2022/08/23 03:33:41;;;;;;;5.38;0.20;;;25.00;59.00;;;;;;5033251;28;20037;-60
2022/08/23 03:36:10;;;;;;;0.30;0.08;;;25.00;58.90;;;;;;5046500;28;20055;-61
2022/08/23 03:38:39;;;;;;;0.47;0.00;;;25.00;59.00;;;;;;5047015;28;20562;-60
2022/08/23 03:41:08;;;;;;;3.13;0.10;;;25.00;59.00;;;;;;5046045;28;20387;-60
2022/08/23 03:43:37;;;;;;;0.43;0.22;;;25.00;59.00;;;;;;5046799;28;20098;-60
2022/08/23 03:46:05;;;;;;;0.38;0.10;;;25.00;59.00;;;;;;5046141;28;20053;-60
2022/08/23 03:48:32;;;;;;;0.10;0.10;;;25.00;59.00;;;;;;5046550;28;20048;-60
2022/08/23 03:51:00;;;;;;;0.15;0.10;;;25.00;59.10;;;;;;5046609;28;20044;-60
2022/08/23 03:53:27;;;;;;;0.20;0.10;;;25.00;59.00;;;;;;5044640;28;20091;-60
2022/08/23 03:55:55;;;;;;;1.15;0.20;;;25.00;59.00;;;;;;5046697;28;20079;-60
2022/08/23 03:58:23;;;;;;;0.20;0.10;;;25.00;59.00;;;;;;5040313;28;20072;-60
2022/08/23 04:00:50;;;;;;;0.20;0.20;;;25.00;59.60;;;;;;5045960;28;20486;-60
2022/08/23 04:03:17;;;;;;;0.10;0.10;;;25.00;59.10;;;;;;5046474;28;20504;-60
2022/08/23 04:05:45;;;;;;;0.63;0.20;;;25.00;59.10;;;;;;5040838;28;20132;-60
2022/08/23 04:08:13;;;;;;;1.38;0.17;;;25.00;59.10;;;;;;5025315;28;20049;-61
2022/08/23 04:10:44;;;;;;;1.00;0.10;;;25.00;59.10;;;;;;5045365;28;20525;-60
2022/08/23 04:13:11;;;;;;;0.00;0.00;;;25.00;59.10;;;;;;5049897;28;20045;-60
2022/08/23 04:15:38;;;;;;;0.43;0.10;;;25.00;59.10;;;;;;5050144;28;20306;-60
2022/08/23 04:18:09;;;;;;;4.30;0.15;;;25.00;59.10;;;;;;5045665;28;20041;-60
2022/08/23 04:20:36;;;;;;;6.15;0.30;;;25.00;59.00;;;;;;5046415;28;20060;-60
2022/08/23 04:23:04;;;;;;;0.10;0.10;;;25.00;59.00;;;;;;5043204;28;20033;-60
2022/08/23 04:25:32;;;;;;;0.20;0.10;;;25.00;59.00;;;;;;5038258;28;20128;-60
2022/08/23 04:28:02;;;;;;;0.98;0.25;;;25.00;59.00;;;;;;5042809;28;20044;-60
2022/08/23 04:30:31;;;;;;;0.80;0.20;;;25.00;59.00;;;;;;5044352;28;20049;-60
2022/08/23 04:32:58;;;;;;;0.22;0.10;;;25.00;59.00;;;;;;5049943;28;20049;-60
2022/08/23 04:35:28;;;;;;;0.10;0.10;;;25.10;59.00;;;;;;5050303;28;20232;-60
2022/08/23 04:37:55;;;;;;;0.98;0.20;;;25.10;59.00;;;;;;5049953;28;20106;-60
2022/08/23 04:43:10;;;;;;;0.20;0.10;;;25.10;59.00;;;;;;5050095;28;20103;-60
2022/08/23 04:45:38;;;;;;;0.30;0.30;;;25.10;58.90;;;;;;5049138;28;20091;-60
2022/08/23 04:48:07;;;;;;;0.00;0.00;;;25.10;58.90;;;;;;5048125;28;20052;-60
2022/08/23 04:50:38;;;;;;;0.45;0.45;;;25.10;58.90;;;;;;5050192;28;20045;-60
2022/08/23 04:53:07;;;;;;;0.95;0.20;;;25.10;58.80;;;;;;5048748;28;20053;-60
2022/08/23 04:55:35;;;;;;;0.28;0.10;;;25.10;58.80;;;;;;5051722;28;20068;-61
2022/08/23 04:58:04;;;;;;;0.50;0.10;;;25.10;58.80;;;;;;5052989;28;20445;-60
2022/08/23 05:00:31;;;;;;;1.77;0.10;;;25.10;58.70;;;;;;5039957;28;20445;-60
2022/08/23 05:02:58;;;;;;;0.77;0.10;;;25.10;58.70;;;;;;5031697;28;20077;-60
2022/08/23 05:05:26;;;;;;;1.30;0.20;;;25.10;58.70;;;;;;5046347;28;20597;-60
2022/08/23 05:07:54;;;;;;;1.15;0.17;;;25.10;58.70;;;;;;5048353;28;20049;-60
2022/08/23 05:10:21;;;;;;;1.73;0.13;;;25.10;58.50;;;;;;5040923;28;20055;-61
2022/08/23 05:12:49;;;;;;;0.60;0.20;;;25.10;58.30;;;;;;5039210;28;20037;-60
2022/08/23 05:15:16;;;;;;;0.13;0.10;;;25.10;58.10;;;;;;5039276;28;20076;-60
2022/08/23 05:17:44;;;;;;;0.30;0.30;;;25.20;58.20;;;;;;5039531;28;20049;-60
2022/08/23 05:20:11;;;;;;;0.38;0.10;;;25.10;58.00;;;;;;5046335;28;20219;-60
2022/08/23 05:22:40;;;;;;;1.77;0.10;;;25.10;58.00;;;;;;5034801;28;20045;-58
2022/08/23 05:25:08;;;;;;;0.20;0.20;;;25.10;57.80;;;;;;5036314;28;20489;-58
2022/08/23 05:27:36;;;;;;;1.75;0.30;;;25.10;57.50;;;;;;5035216;28;20649;-59
2022/08/23 05:30:05;;;;;;;0.25;0.20;;;25.00;57.60;;;;;;5038931;28;20718;-58
2022/08/23 05:32:33;;;;;;;0.75;0.55;;;24.80;57.80;;;;;;5027541;28;20061;-58
2022/08/23 05:35:00;;;;;;;4.65;0.65;;;24.80;57.90;;;;;;5025663;28;20049;-58
2022/08/23 05:37:27;;;;;;;0.40;0.40;;;24.70;58.20;;;;;;5025716;28;20071;-58
2022/08/23 05:39:54;;;;;;;2.88;0.50;;;24.50;58.60;;;;;;5030627;28;20057;-58
2022/08/23 05:42:22;;;;;;;0.88;0.50;;;24.40;58.80;;;;;;5032658;28;21597;-58
2022/08/23 05:44:50;;;;;;;1.50;0.60;;;24.20;59.10;;;;;;5035653;28;20049;-58
2022/08/23 05:47:18;;;;;;;0.52;0.52;;;24.10;59.40;;;;;;5032377;28;20110;-58
2022/08/23 05:49:50;;;;;;;2.47;0.80;;;24.00;59.90;;;;;;5041759;28;20052;-58
2022/08/23 05:52:17;;;;;;;0.63;0.63;;;23.90;60.10;;;;;;5033865;28;20045;-59
2022/08/23 05:54:45;;;;;;;1.17;0.95;;;23.80;60.50;;;;;;5045255;28;20053;-59
2022/08/23 05:57:12;;;;;;;1.92;0.57;;;23.70;60.70;;;;;;5031482;28;20148;-59
2022/08/23 05:59:40;;;;;;;1.45;0.70;;;23.60;60.90;;;;;;5037187;28;20493;-60
2022/08/23 06:02:08;;;;;;;2.25;0.50;;;23.50;61.20;;;;;;5030750;28;20076;-60
2022/08/23 06:04:35;;;;;;;0.70;0.60;;;23.50;61.40;;;;;;5028097;28;20064;-62
2022/08/23 06:07:04;;;;;;;1.17;0.57;;;23.50;61.70;;;;;;5030981;28;20057;-59
2022/08/23 06:09:31;;;;;;;3.92;0.70;;;23.40;62.30;;;;;;5037806;28;20096;-60
2022/08/23 06:11:59;;;;;;;4.50;0.60;;;23.40;61.80;;;;;;5027562;28;20060;-59
2022/08/23 06:14:27;;;;;;;2.15;0.50;;;23.40;61.80;;;;;;5030410;28;20045;-59
2022/08/23 06:16:54;;;;;;;7.32;0.93;;;23.50;62.00;;;;;;5033481;28;20052;-59
2022/08/23 06:19:23;;;;;;;2.88;0.40;;;23.50;62.10;;;;;;5034058;28;20079;-60
2022/08/23 06:21:51;;;;;;;5.07;0.60;;;23.60;61.90;;;;;;5035267;28;20099;-59
2022/08/23 06:24:19;;;;;;;4.43;0.68;;;23.60;61.50;;;;;;5031246;28;20052;-59
2022/08/23 06:26:47;;;;;;;2.70;0.50;;;23.70;61.50;;;;;;5025285;28;20045;-59
2022/08/23 06:29:16;;;;;;;1.05;0.60;;;23.70;61.40;;;;;;5026005;28;20053;-59
2022/08/23 06:31:49;;;;;;;2.85;0.70;;;23.80;61.20;;;;;;5033758;28;20457;-58
2022/08/23 06:34:28;;;;;;;2.55;0.45;;;23.80;61.20;;;;;;5027657;28;20079;-59
2022/08/23 06:36:57;;;;;;;3.92;0.50;;;23.90;61.10;;;;;;5020665;28;20544;-59
2022/08/23 06:39:28;;;;;;;4.00;1.27;;;23.90;60.80;;;;;;5026073;28;20055;-59
2022/08/23 06:42:11;;;;;;;1.38;0.40;;;23.90;60.70;;;;;;5021686;28;20049;-59
2022/08/23 06:44:58;;;;;;;2.20;0.90;;;23.90;60.80;;;;;;5028736;28;20056;-59
2022/08/23 06:47:26;;;;;;;3.42;0.60;;;23.90;61.00;;;;;;5031525;28;20041;-59
2022/08/23 06:49:54;;;;;;;6.50;0.77;;;23.80;61.10;;;;;;5024865;28;20049;-59
2022/08/23 06:52:26;;;;;;;6.70;0.80;;;23.90;61.10;;;;;;5035388;28;20044;-59
2022/08/23 06:54:54;;;;;;;1.30;0.60;;;23.90;61.00;;;;;;5028978;28;20057;-59
2022/08/23 06:57:21;;;;;;;10.20;1.55;;;23.80;61.10;;;;;;5021009;28;20056;-58
2022/08/23 06:59:48;;;;;;;2.70;0.70;;;23.80;61.20;;;;;;5033658;28;20048;-59
2022/08/23 07:02:16;;;;;;;10.55;1.25;;;23.80;61.20;;;;;;5034759;28;20041;-59
2022/08/23 07:04:43;;;;;;;6.35;1.63;;;23.70;61.50;;;;;;5032571;28;20470;-58
2022/08/23 07:07:11;;;;;;;3.15;0.88;;;23.70;61.60;;;;;;5030816;28;20044;-58
2022/08/23 07:09:40;;;;;;;5.85;0.90;;;23.80;61.60;;;;;;5027222;28;20402;-59
2022/08/23 07:12:07;;;;;;;5.70;1.38;;;23.80;61.60;;;;;;5032931;28;20061;-63
2022/08/23 07:14:36;;;;;;;8.85;1.25;;;23.80;61.40;;;;;;5032228;28;20052;-59
2022/08/23 07:17:04;;;;;;;7.72;0.95;;;23.90;61.50;;;;;;5030516;28;20473;-59
2022/08/23 07:19:33;;;;;;;3.67;0.75;;;23.90;61.50;;;;;;5031547;28;20045;-60
2022/08/23 07:22:02;;;;;;;8.93;0.70;;;23.90;61.40;;;;;;5039629;28;20041;-59
2022/08/23 07:24:31;;;;;;;6.43;1.02;;;23.90;61.40;;;;;;5021095;28;20056;-59
2022/08/23 07:27:05;;;;;;;2.72;0.60;;;23.90;61.40;;;;;;5036357;28;20421;-59
2022/08/23 07:29:33;;;;;;;9.15;1.02;;;23.90;61.40;;;;;;5029143;28;20558;-59
2022/08/23 07:32:01;;;;;;;5.65;1.00;;;24.00;61.40;;;;;;5031059;28;20049;-59
2022/08/23 07:34:29;;;;;;;7.72;1.10;;;24.00;61.40;;;;;;5019293;28;20041;-60
2022/08/23 07:36:56;;;;;;;12.35;1.98;;;24.10;61.20;;;;;;5023241;28;20248;-59
2022/08/23 07:39:25;;;;;;;4.13;1.23;;;24.10;61.10;;;;;;5028949;28;20044;-59
2022/08/23 07:41:52;;;;;;;4.45;0.75;;;24.20;60.90;;;;;;5031412;28;20045;-60
2022/08/23 07:44:20;;;;;;;4.55;0.73;;;24.20;60.70;;;;;;5026213;28;20091;-60
2022/08/23 07:46:53;;;;;;;5.15;0.82;;;24.30;60.50;;;;;;5033169;28;20126;-61
2022/08/23 07:49:21;;;;;;;5.35;0.82;;;24.40;60.30;;;;;;5032639;28;20122;-60
2022/08/23 07:51:57;;;;;;;3.05;0.80;;;24.50;60.10;;;;;;5028230;28;20084;-60
2022/08/23 07:54:26;;;;;;;5.43;0.98;;;24.50;59.80;;;;;;5029411;28;20045;-59
2022/08/23 07:56:54;;;;;;;6.00;1.00;;;24.50;59.80;;;;;;5034762;28;20037;-58
2022/08/23 07:59:22;;;;;;;9.40;1.42;;;24.60;60.30;;;;;;5026591;28;20060;-58
2022/08/23 08:01:49;;;;;;;8.38;1.50;;;24.60;59.60;;;;;;5028696;28;20463;-58
2022/08/23 08:04:16;;;;;;;6.22;1.33;;;24.70;59.50;;;;;;5029387;28;20036;-58
2022/08/23 08:06:47;;;;;;;1.55;0.70;;;24.70;59.40;;;;;;5019902;28;20060;-58
2022/08/23 08:09:34;;;;;;;5.88;1.48;;;24.80;59.30;;;;;;5032233;28;20052;-58
2022/08/23 08:12:02;;;;;;;3.72;0.60;;;24.80;59.20;;;;;;5030699;28;20049;-58
2022/08/23 08:14:29;;;;;;;4.30;1.48;;;24.90;59.20;;;;;;5031720;28;20111;-58
2022/08/23 08:16:57;;;;;;;5.82;0.82;;;24.90;59.10;;;;;;5018098;28;20517;-59
2022/08/23 08:19:25;;;;;;;5.82;0.60;;;24.90;59.00;;;;;;5025265;28;20052;-58
2022/08/23 08:21:52;;;;;;;3.70;1.23;;;25.00;58.90;;;;;;5028590;28;20551;-58
2022/08/23 08:24:19;;;;;;;2.38;1.48;;;25.00;58.80;;;;;;5034110;28;20084;-58
2022/08/23 08:26:47;;;;;;;6.60;0.90;;;25.00;58.70;;;;;;5030686;28;20045;-59
2022/08/23 08:29:14;;;;;;;4.72;0.80;;;25.10;58.60;;;;;;5027171;28;20076;-58
2022/08/23 08:31:44;;;;;;;2.92;0.70;;;25.10;58.50;;;;;;5024111;28;20429;-55
2022/08/23 08:34:11;;;;;;;2.17;0.60;;;25.20;58.50;;;;;;5033997;28;20056;-59
2022/08/23 08:36:45;;;;;;;2.83;0.90;;;25.20;58.40;;;;;;5034294;28;20448;-58
2022/08/23 08:39:15;;;;;;;1.85;0.40;;;25.20;58.20;;;;;;5036826;28;20054;-58
2022/08/23 08:42:03;;;;;;;1.58;0.68;;;25.30;58.20;;;;;;5039957;28;20057;-58
2022/08/23 08:44:46;;;;;;;4.80;0.90;;;25.30;58.20;;;;;;5034905;28;20052;-59
2022/08/23 08:47:36;;;;;;;3.67;0.68;;;25.40;58.20;;;;;;5014715;28;20464;-59
2022/08/23 08:50:27;;;;;;;3.10;0.52;;;25.50;58.10;;;;;;5033287;28;20103;-58
2022/08/23 08:53:00;;;;;;;1.92;0.50;;;25.50;57.70;;;;;;5034164;28;20053;-58
2022/08/23 08:55:39;;;;;;;4.95;0.75;;;25.50;57.50;;;;;;5033623;28;20556;-60
2022/08/23 08:58:11;;;;;;;3.05;0.52;;;25.60;57.60;;;;;;5041487;28;20493;-61
2022/08/23 09:00:39;;;;;;;1.50;0.47;;;25.60;57.60;;;;;;5038397;28;20045;-60
2022/08/23 09:03:13;;;;;;;4.00;0.50;;;25.60;57.50;;;;;;5035496;28;20103;-60
2022/08/23 09:05:52;;;;;;;2.00;0.57;;;25.60;57.50;;;;;;5030848;28;20048;-60
2022/08/23 09:08:59;;;;;;;0.77;0.52;;;25.60;57.50;;;;;;5033485;28;20041;-60
2022/08/23 09:11:56;;;;;;;4.80;0.60;;;25.60;57.50;;;;;;5031498;28;20335;-58
2022/08/23 09:14:48;;;;;;;0.95;0.38;;;25.50;57.50;;;;;;5036025;28;20111;-58
2022/08/23 09:17:23;;;;;;;1.50;0.40;;;25.50;57.70;;;;;;5027451;28;20580;-57
2022/08/23 09:19:55;;;;;;;3.03;0.73;;;25.50;57.70;;;;;;5012715;28;20453;-58
2022/08/23 09:22:40;;;;;;;0.70;0.30;;;25.50;57.70;;;;;;5037642;28;20559;-57
2022/08/23 09:25:10;;;;;;;2.05;0.30;;;25.50;57.70;;;;;;5028418;28;20099;-57
2022/08/23 09:27:40;;;;;;;4.80;0.95;;;25.60;57.80;;;;;;5029497;28;20429;-57
2022/08/23 09:30:09;;;;;;;4.70;0.70;;;25.60;57.80;;;;;;5030582;28;20064;-57
2022/08/23 09:32:42;;;;;;;1.77;0.50;;;25.50;58.00;;;;;;5033584;28;20053;-57
2022/08/23 09:35:20;;;;;;;1.67;0.22;;;25.50;58.00;;;;;;5036588;28;20041;-57
2022/08/23 09:37:58;;;;;;;1.02;0.32;;;25.50;58.10;;;;;;5040082;28;20543;-59
2022/08/23 09:40:37;;;;;;;1.65;0.52;;;25.40;58.10;;;;;;5040785;28;20052;-57
2022/08/23 09:43:25;;;;;;;1.55;0.65;;;25.40;58.30;;;;;;5037408;28;20057;-57
2022/08/23 09:45:59;;;;;;;0.60;0.40;;;25.40;58.40;;;;;;5032850;28;20056;-57
2022/08/23 09:48:42;;;;;;;1.15;0.32;;;25.40;58.50;;;;;;5032696;28;20053;-60
2022/08/23 09:51:29;;;;;;;2.17;0.57;;;25.40;58.70;;;;;;5029293;28;20049;-61
2022/08/23 09:54:11;;;;;;;0.40;0.40;;;25.40;58.80;;;;;;5062295;28;20365;-57
2022/08/23 09:56:43;;;;;;;0.35;0.30;;;25.40;59.00;;;;;;5035961;28;20056;-57
2022/08/23 09:59:38;;;;;;;0.22;0.20;;;25.40;59.00;;;;;;5028817;28;20045;-57
2022/08/23 10:02:26;;;;;;;0.50;0.43;;;25.40;59.00;;;;;;5034712;28;20114;-57
2022/08/23 10:04:58;;;;;;;0.45;0.30;;;25.40;59.00;;;;;;5032126;28;20037;-58
2022/08/23 10:07:37;;;;;;;0.32;0.10;;;25.40;58.90;;;;;;5025972;28;20544;-57
2022/08/23 10:10:31;;;;;;;4.47;0.35;;;25.50;58.70;;;;;;5036616;28;20059;-57
2022/08/23 10:12:59;;;;;;;0.40;0.38;;;25.60;58.70;;;;;;5031198;28;20049;-57
2022/08/23 10:15:53;;;;;;;1.27;0.50;;;25.60;58.60;;;;;;5021252;28;20506;-57
2022/08/23 10:18:58;;;;;;;1.00;0.30;;;25.60;58.30;;;;;;5029485;28;20432;-58
2022/08/23 10:21:47;;;;;;;2.20;0.40;;;25.70;58.20;;;;;;5039962;28;20072;-57
2022/08/23 10:24:45;;;;;;;1.23;0.40;;;25.70;58.20;;;;;;5033157;28;20102;-58
2022/08/23 10:30:48;;;;;;;0.90;0.28;;;25.70;58.20;;;;;;5039138;28;20045;-57
2022/08/23 10:33:38;;;;;;;0.63;0.20;;;25.80;57.90;;;;;;5035361;28;20053;-58
2022/08/23 10:36:08;;;;;;;;;;;25.80;57.90;;;;;;5031324;28;20053;-58
2022/08/23 10:38:50;;;;;;;;;;;25.90;57.80;;;;;;5025616;28;20663;-57
2022/08/23 10:41:37;;;;;;;3.10;0.63;;;25.90;57.60;;;;;;5032753;28;19948;-58
2022/08/23 10:44:26;;;;;;;2.10;0.50;;;26.00;57.50;;;;;;5041322;28;20493;-57
2022/08/23 10:47:19;;;;;;;0.80;0.55;;;26.00;57.50;;;;;;5036178;28;20048;-60
2022/08/23 10:49:50;;;;;;;1.20;0.55;;;26.00;57.50;;;;;;5034214;28;20083;-60
2022/08/23 10:52:31;;;;;;;2.08;0.73;;;26.00;57.60;;;;;;5034174;28;20158;-60
2022/08/23 10:55:05;;;;;;;1.77;0.45;;;26.00;57.50;;;;;;5039000;28;20067;-60
2022/08/23 10:57:36;;;;;;;0.55;0.40;;;25.90;57.70;;;;;;5030832;28;20079;-59
2022/08/23 11:00:14;;;;;;;1.58;0.70;;;25.90;57.60;;;;;;5030088;28;20056;-61
2022/08/23 11:02:56;;;;;;;0.52;0.40;;;25.90;57.70;;;;;;5033589;28;20079;-60
2022/08/23 11:05:31;;;;;;;1.58;0.52;;;25.90;57.90;;;;;;5035690;28;20095;-60
2022/08/23 11:08:06;;;;;;;1.45;0.60;;;25.90;58.30;;;;;;5037036;28;20063;-60
2022/08/23 11:10:48;;;;;;;0.90;0.90;;;25.80;58.30;;;;;;5024421;28;20143;-60
2022/08/23 11:13:30;;;;;;;0.70;0.70;;;25.80;58.70;;;;;;5036909;28;20052;-60
2022/08/23 11:16:14;;;;;;;0.47;0.40;;;25.70;58.80;;;;;;5026754;28;20130;-60
2022/08/23 11:18:48;;;;;;;1.48;0.70;;;25.60;58.70;;;;;;5037122;28;20049;-59
2022/08/23 11:21:41;;;;;;;0.93;0.60;;;25.50;58.70;;;;;;5031378;28;20057;-59
2022/08/23 11:24:29;;;;;;;1.25;0.80;;;25.40;59.10;;;;;;5038248;28;20111;-59
2022/08/23 11:27:01;;;;;;;4.13;0.40;;;25.30;59.10;;;;;;5027128;28;20049;-59
2022/08/23 11:29:34;;;;;;;2.40;0.80;;;25.20;59.30;;;;;;5030741;28;20375;-62
2022/08/23 11:32:24;;;;;;;2.15;0.60;;;25.10;59.60;;;;;;5036844;28;20050;-60
2022/08/23 11:35:09;;;;;;;0.73;0.38;;;25.10;59.80;;;;;;5032341;28;20071;-61
2022/08/23 11:37:59;;;;;;;0.52;0.30;;;25.10;59.70;;;;;;5037853;28;20118;-60
2022/08/23 11:40:56;;;;;;;0.55;0.50;;;25.20;59.70;;;;;;5032394;28;20049;-59
2022/08/23 11:43:34;;;;;;;1.05;0.50;;;25.30;59.60;;;;;;5038286;28;20143;-60
2022/08/23 11:46:33;;;;;;;0.30;0.30;;;25.40;59.50;;;;;;5046158;28;20099;-59
2022/08/23 11:49:25;;;;;;;2.90;0.57;;;25.50;59.40;;;;;;5032311;28;20037;-60
2022/08/23 11:52:32;;;;;;;0.70;0.40;;;25.50;59.30;;;;;;5026705;28;20136;-60
2022/08/23 11:55:33;;;;;;;2.03;0.47;;;25.60;59.20;;;;;;5027647;28;20107;-60
2022/08/23 11:58:29;;;;;;;0.65;0.30;;;25.70;59.10;;;;;;5027126;28;20044;-59
2022/08/23 12:01:11;;;;;;;0.50;0.50;;;25.70;58.90;;;;;;5026378;28;20080;-60
2022/08/23 12:04:12;;;;;;;0.40;0.40;;;25.70;58.80;;;;;;5032406;28;20038;-60
2022/08/23 12:07:00;;;;;;;2.53;0.40;;;25.80;58.70;;;;;;5034939;28;20053;-60
2022/08/23 12:09:49;;;;;;;1.30;0.50;;;25.80;58.60;;;;;;5026203;28;20045;-60
2022/08/23 12:12:27;;;;;;;0.77;0.40;;;25.90;58.50;;;;;;5028307;28;20048;-61
2022/08/23 12:14:59;;;;;;;0.45;0.40;;;25.90;58.40;;;;;;5034433;28;20045;-61
2022/08/23 12:17:53;;;;;;;1.48;0.43;;;26.00;58.40;;;;;;5037715;28;20149;-63
2022/08/23 12:20:29;;;;;;;2.05;0.40;;;26.00;58.30;;;;;;5029560;28;20053;-62
2022/08/23 12:23:06;;;;;;;2.15;0.88;;;26.00;58.10;;;;;;5037302;28;20080;-61
2022/08/23 12:25:34;;;;;;;3.55;0.60;;;26.10;58.10;;;;;;5031198;28;20045;-61
2022/08/23 12:28:28;;;;;;;0.43;0.38;;;26.10;58.10;;;;;;5028281;28;20053;-61
2022/08/23 12:31:15;;;;;;;0.60;0.57;;;26.10;58.00;;;;;;5022491;28;20489;-61
2022/08/23 12:34:14;;;;;;;0.68;0.68;;;26.10;57.90;;;;;;5036175;28;20417;-60
2022/08/23 12:37:09;;;;;;;1.08;0.65;;;26.10;57.80;;;;;;5034011;28;20051;-62
2022/08/23 12:39:47;;;;;;;1.83;0.60;;;26.20;57.70;;;;;;5034463;28;20053;-62
2022/08/23 12:42:23;;;;;;;1.60;0.70;;;26.20;58.20;;;;;;5033928;28;20049;-60
2022/08/23 12:45:12;;;;;;;2.03;0.70;;;26.20;57.60;;;;;;5032578;28;20817;-61
2022/08/23 12:47:42;;;;;;;0.77;0.70;;;26.30;57.50;;;;;;5039430;28;20122;-60
2022/08/23 12:50:31;;;;;;;0.50;0.50;;;26.30;57.50;;;;;;5034874;28;20064;-60
2022/08/23 12:53:08;;;;;;;1.00;0.50;;;26.30;57.40;;;;;;5035668;28;20497;-60
2022/08/23 12:55:40;;;;;;;1.40;0.95;;;26.40;57.40;;;;;;5039357;28;20398;-61
2022/08/23 12:58:08;;;;;;;0.70;0.70;;;26.40;57.30;;;;;;5032708;28;20095;-61
2022/08/23 13:00:42;;;;;;;1.95;0.70;;;26.40;57.20;;;;;;5035822;28;20214;-61
2022/08/23 13:03:22;;;;;;;1.13;0.68;;;26.40;57.20;;;;;;5036416;28;20107;-61
2022/08/23 13:06:13;;;;;;;2.47;0.70;;;26.40;57.10;;;;;;5039070;28;20045;-61
2022/08/23 13:08:46;;;;;;;1.10;1.00;;;26.50;57.20;;;;;;5068180;28;20053;-63
2022/08/23 13:11:18;;;;;;;1.30;0.90;;;26.50;57.20;;;;;;5038638;28;21188;-62
2022/08/23 13:13:46;;;;;;;1.05;0.70;;;26.50;57.20;;;;;;5035815;28;20127;-62
2022/08/23 13:16:42;;;;;;;0.95;0.80;;;26.50;57.20;;;;;;5039055;28;20052;-61
2022/08/23 13:19:22;;;;;;;0.75;0.60;;;26.50;57.20;;;;;;5033124;28;20041;-61
2022/08/23 13:22:24;;;;;;;0.82;0.77;;;26.50;57.20;;;;;;5036154;28;20263;-60
2022/08/23 13:25:08;;;;;;;1.52;1.25;;;26.50;57.20;;;;;;5041787;28;20041;-59
2022/08/23 13:27:59;;;;;;;1.13;1.10;;;26.50;57.40;;;;;;5049285;28;20132;-58
2022/08/23 13:30:30;;;;;;;1.40;1.30;;;26.50;57.50;;;;;;5027038;28;20556;-59
2022/08/23 13:33:19;;;;;;;1.23;1.10;;;26.50;57.60;;;;;;5032709;28;20494;-59
2022/08/23 13:35:49;;;;;;;1.52;1.33;;;26.50;57.80;;;;;;5032110;28;20091;-59